• Join FlightAware (Why Join?)
  • Login
  • US Flag 
10:06PM EDT


 

Airport Tracker/Info


-or-


 

Live Flight TrackerFlight Track Log ✈ UAL4853 ✈ 03-May-2013 ✈ KCLE - KMDT

Flight Track Log - Related Links

Times and Time Zones

All times are in EDT time to prevent confusion due to time zone crossing. See the UAL4853 flight status page for this flight to view local times or setup timezone preferences in your user account.

Time Position Orientation Groundspeed Altitude Reporting Facility
EDT Latitude Longitude Course Direction KTS MPH feet Rate Location/Type
08:45PM 41.4217 -81.8319 54° Northeast 118 136 1,600  Level Cleveland Center
08:46PM 41.4322 -81.8128 54° Northeast 126 145 2,200 1,140 Climbing Cleveland Center
08:47PM 41.4411 -81.7547 78° East 151 174 3,500 1,200 Climbing Cleveland Center
08:48PM 41.4289 -81.7297 123° Southeast 163 188 4,200 1,320 Climbing Cleveland Center
08:48PM 41.4167 -81.7100 130° Southeast 159 183 4,900 1,260 Climbing Cleveland Center
08:49PM 41.4022 -81.6847 127° Southeast 167 192 5,500 1,140 Climbing Cleveland Center
08:50PM 41.3694 -81.6372 133° Southeast 178 205 6,800 1,200 Climbing Cleveland Center
08:51PM 41.3428 -81.5733 119° Southeast 178 205 8,000 1,080 Climbing Cleveland Center
08:52PM 41.3267 -81.5094 109° East 178 205 9,000 540 Climbing Cleveland Center
08:53PM 41.2917 -81.4453 126° Southeast 198 228 9,100 660 Climbing Cleveland Center
08:54PM 41.2483 -81.3894 136° Southeast 214 246 10,400 1,200 Climbing Cleveland Center
08:55PM 41.2092 -81.3394 136° Southeast 208 239 11,500 1,020 Climbing Cleveland Center
08:56PM 41.1719 -81.2892 135° Southeast 197 227 12,500 840 Climbing Cleveland Center
08:57PM 41.1389 -81.2447 135° Southeast 192 221 13,200 780 Climbing Cleveland Center
08:58PM 41.1017 -81.1894 132° Southeast 197 227 14,100 960 Climbing Cleveland Center
08:59PM 41.0831 -81.1203 110° East 197 227 15,200 1,020 Climbing Cleveland Center
09:00PM 41.0647 -81.0403 107° East 197 227 16,200 900 Climbing Cleveland Center
09:01PM 41.0442 -80.9714 112° Southeast 197 227 17,100 840 Climbing Cleveland Center
09:02PM 41.0256 -80.9025 110° East 192 221 17,900 660 Climbing Cleveland Center
09:03PM 41.0028 -80.8308 113° Southeast 197 227 18,500 600 Climbing Cleveland Center
09:04PM 40.9822 -80.7592 111° Southeast 197 227 19,200 720 Climbing Cleveland Center
09:05PM 40.9636 -80.6875 109° East 202 232 20,000 660 Climbing Cleveland Center
09:06PM 40.9428 -80.6161 111° Southeast 202 232 20,600 600 Climbing Cleveland Center
09:07PM 40.9219 -80.5447 111° Southeast 202 232 21,200 600 Climbing Cleveland Center
09:08PM 40.9031 -80.4733 109° East 202 232 21,900 600 Climbing Cleveland Center
09:09PM 40.8800 -80.4019 113° Southeast 207 238 22,500 540 Climbing Cleveland Center
09:10PM 40.8611 -80.3442 113° Southeast 207 238 23,000 240 Climbing Cleveland Center
09:11PM 40.8381 -80.2703 112° Southeast 207 238 23,000  Level Cleveland Center
09:12PM 40.8150 -80.1936 112° Southeast 214 246 23,000  Level Cleveland Center
09:13PM 40.7894 -80.1033 110° East 226 260 23,000  Level Cleveland Center
09:14PM 40.7767 -80.0156 101° East 238 274 23,000  Level Cleveland Center
09:15PM 40.7658 -79.9225 99° East 243 280 23,000  Level Cleveland Center
09:16PM 40.7525 -79.8322 101° East 243 280 23,000 -240 Level Cleveland Center
09:17PM 40.7394 -79.7392 100° East 243 280 22,600 -720 Descending Cleveland Center
09:18PM 40.7242 -79.6406 102° East 254 292 21,600 -1,020 Descending Cleveland Center
09:19PM 40.7086 -79.5367 101° East 274 315 20,600 -1,020 Descending Cleveland Center
09:20PM 40.6908 -79.4275 102° East 285 328 19,600 -1,020 Descending Cleveland Center
09:21PM 40.6753 -79.3211 101° East 295 339 18,600 -900 Descending Cleveland Center
09:22PM 40.6594 -79.2119 101° East 295 339 17,900 -900 Descending Cleveland Center
09:23PM 40.6414 -79.1083 103° East 295 339 16,900 -1,020 Descending Cleveland Center
09:24PM 40.6253 -78.9992 101° East 295 339 15,900 -960 Descending Cleveland Center
09:25PM 40.6069 -78.8931 103° East 295 339 15,000 -960 Descending Cleveland Center
09:26PM 40.5889 -78.7950 104° East 290 334 14,000 -1,020 Descending Cleveland Center
09:27PM 40.5769 -78.7050 100° East 285 328 13,000 -1,020 Descending Cleveland Center
09:28PM 40.5608 -78.6072 102° East 272 313 12,000 -1,020 Descending Cleveland Center
09:29PM 40.5467 -78.5147 101° East 272 313 11,000 -600 Descending Cleveland Center
09:30PM 40.5303 -78.4222 103° East 266 306 10,900 -120 Descending Cleveland Center
09:30PM 40.5219 -78.3647 101° East 260 299 10,900 60 Level New York Center
09:31PM 40.5067 -78.2756 103° East 260 299 11,000  Climbing New York Center
09:32PM 40.4950 -78.1978 101° East 249 287 11,000  Level New York Center
09:33PM 40.4794 -78.1089 103° East 244 281 11,000  Level New York Center
09:34PM 40.4661 -78.0228 101° East 244 281 11,000  Level New York Center
09:35PM 40.4489 -77.9308 104° East 244 281 11,000  Level New York Center
09:36PM 40.4356 -77.8394 101° East 244 281 11,000 -480 Level New York Center
09:37PM 40.4200 -77.7506 103° East 244 281 10,100 -1,260 Descending New York Center
09:38PM 40.3992 -77.6450 104° East 261 300 8,600 -1,560 Descending New York Center
09:39PM 40.3853 -77.5589 102° East 255 293 7,100 -840 Descending New York Center
09:40PM 40.3650 -77.4753 108° East 243 280 7,000 -60 Descending New York Center
09:41PM 40.3444 -77.3942 108° East 232 267 7,000  Level New York Center
09:42PM 40.3261 -77.3136 107° East 232 267 7,000 -240 Level New York Center
09:43PM 40.3056 -77.2325 108° East 232 267 6,600 -840 Descending New York Center
09:44PM 40.2869 -77.1519 107° East 232 267 5,400 -1,500 Descending New York Center
09:45PM 40.2664 -77.0711 108° East 232 267 3,600 -1,260 Descending New York Center
09:46PM 40.2581 -76.9889 98° East 232 267 3,000 -420 Descending New York Center
09:47PM 40.2556 -76.9206 93° East 212 244 2,800 -300 Descending New York Center
09:48PM 40.2422 -76.8567 105° East 202 232 2,400 -420 Descending New York Center
09:52PM 40.1893 -76.7648 118° Southeast  Level FlightAware Approximate